Time;durP1;ratioP1;P1;durP2;ratioP2;P2;SDS_P1;SDS_P2;PMS_P1;PMS_P2;Temp;Humidity;BMP_temperature;BMP_pressure;BME280_temperature;BME280_humidity;BME280_pressure;Samples;Min_cycle;Max_cycle;Signal;HPM_P1;HPM_P2
2023/03/03 00:00:25;;;;;;;47.77;18.87;;;2.70;99.90;;;;;;5069922;28;20375;-55
2023/03/03 00:02:51;;;;;;;49.07;20.50;;;2.70;99.90;;;;;;5069877;28;20733;-55
2023/03/03 00:05:17;;;;;;;40.58;18.02;;;2.60;1.00;;;;;;5069154;28;20383;-55
2023/03/03 00:07:46;;;;;;;41.95;18.60;;;2.70;1.00;;;;;;5069861;28;20939;-55
2023/03/03 00:10:13;;;;;;;44.22;19.40;;;2.70;1.00;;;;;;5069315;28;20372;-55
2023/03/03 00:12:47;;;;;;;42.53;18.75;;;2.70;1.00;;;;;;5069275;28;20726;-55
2023/03/03 00:15:24;;;;;;;48.75;19.02;;;2.60;99.90;;;;;;5068966;28;20387;-55
2023/03/03 00:17:51;;;;;;;39.23;17.43;;;2.60;99.90;;;;;;5069395;28;20846;-55
2023/03/03 00:20:37;;;;;;;39.30;17.73;;;2.50;99.90;;;;;;5068466;28;20387;-55
2023/03/03 00:23:23;;;;;;;43.80;19.02;;;2.30;1.00;;;;;;5067954;28;20404;-55
2023/03/03 00:25:51;;;;;;;43.30;18.60;;;2.30;1.00;;;;;;5069631;28;20440;-55
2023/03/03 00:28:26;;;;;;;43.72;17.73;;;2.40;1.00;;;;;;5068532;28;20489;-55
2023/03/03 00:30:53;;;;;;;42.58;18.95;;;2.40;1.00;;;;;;5069800;28;20406;-55
2023/03/03 00:33:31;;;;;;;43.80;18.05;;;2.40;1.00;;;;;;5068853;28;20384;-55
2023/03/03 00:36:15;;;;;;;48.85;19.00;;;2.40;1.00;;;;;;5069748;28;20372;-55
2023/03/03 00:38:41;;;;;;;41.33;18.90;;;2.40;1.00;;;;;;5069804;28;20476;-55
2023/03/03 00:41:23;;;;;;;47.72;19.10;;;3.20;1.00;;;;;;5068429;28;20678;-55
2023/03/03 00:43:50;;;;;;;44.10;19.27;;;2.30;1.00;;;;;;5069690;28;20407;-55
2023/03/03 00:46:21;;;;;;;48.30;19.45;;;2.30;1.00;;;;;;5071491;28;20890;-55
2023/03/03 00:48:48;;;;;;;40.63;18.13;;;2.20;1.00;;;;;;5087558;28;20434;-55
2023/03/03 00:51:16;;;;;;;38.90;16.33;;;2.20;1.00;;;;;;5088699;28;20370;-55
2023/03/03 00:53:41;;;;;;;44.65;17.88;;;2.20;99.90;;;;;;5089006;28;20391;-55
2023/03/03 00:56:07;;;;;;;43.40;17.70;;;2.30;1.00;;;;;;5088597;28;20390;-55
2023/03/03 00:58:33;;;;;;;44.27;19.90;;;2.10;1.00;;;;;;5088453;28;20381;-55
2023/03/03 01:00:58;;;;;;;43.00;18.35;;;2.00;1.00;;;;;;5088424;28;20865;-55
2023/03/03 01:03:25;;;;;;;45.37;18.07;;;1.90;1.00;;;;;;5088913;28;20413;-55
2023/03/03 01:05:52;;;;;;;41.65;17.58;;;2.00;1.00;;;;;;5089078;28;20500;-55
2023/03/03 01:08:18;;;;;;;41.42;17.15;;;1.80;1.00;;;;;;5086715;28;21188;-55
2023/03/03 01:10:57;;;;;;;38.08;17.30;;;1.80;1.00;;;;;;5089230;28;20450;-56
2023/03/03 01:13:29;;;;;;;45.50;18.30;;;1.80;1.00;;;;;;5085727;28;20398;-57
2023/03/03 01:15:55;;;;;;;47.13;18.45;;;1.70;1.00;;;;;;5083925;28;20389;-57
2023/03/03 01:18:20;;;;;;;41.85;18.83;;;1.60;49.90;;;;;;5088352;28;20910;-57
2023/03/03 01:20:46;;;;;;;42.30;18.67;;;2.90;39.80;;;;;;5088378;28;20461;-57
2023/03/03 01:23:12;;;;;;;41.67;18.10;;;1.50;84.30;;;;;;5087959;28;20457;-57
2023/03/03 01:25:38;;;;;;;45.60;18.20;;;1.40;99.90;;;;;;5089642;28;20394;-57
2023/03/03 01:28:03;;;;;;;38.65;18.25;;;1.40;99.90;;;;;;5086658;28;20414;-57
2023/03/03 01:30:30;;;;;;;49.03;19.08;;;1.40;1.00;;;;;;5088923;28;20385;-57
2023/03/03 01:32:56;;;;;;;39.70;18.47;;;1.30;1.00;;;;;;5088763;28;20390;-57
2023/03/03 01:35:22;;;;;;;44.73;18.90;;;1.20;1.00;;;;;;5089671;28;20392;-57
2023/03/03 01:37:47;;;;;;;44.28;17.35;;;1.10;71.50;;;;;;5092463;28;20708;-57
2023/03/03 01:40:18;;;;;;;47.00;19.30;;;1.10;99.90;;;;;;5092132;28;20362;-57
2023/03/03 01:42:44;;;;;;;44.40;19.57;;;1.20;99.90;;;;;;5092596;28;20412;-57
2023/03/03 01:45:23;;;;;;;45.03;18.50;;;1.20;99.90;;;;;;5091895;28;21100;-57
2023/03/03 01:47:59;;;;;;;42.55;16.60;;;1.20;1.00;;;;;;5092249;28;20382;-57
2023/03/03 01:50:31;;;;;;;45.13;17.00;;;1.10;1.00;;;;;;5092273;28;20476;-57
2023/03/03 01:52:59;;;;;;;43.70;18.65;;;0.90;99.90;;;;;;5088165;28;20378;-57
2023/03/03 01:55:31;;;;;;;43.40;17.67;;;1.00;1.00;;;;;;5091413;28;20417;-57
2023/03/03 01:58:23;;;;;;;46.67;17.92;;;1.00;29.10;;;;;;5087262;28;20844;-57
2023/03/03 02:00:54;;;;;;;44.50;17.10;;;0.90;1.00;;;;;;5090835;28;20389;-57
2023/03/03 02:03:21;;;;;;;46.30;19.13;;;0.80;69.00;;;;;;5090803;28;20406;-57
2023/03/03 02:05:49;;;;;;;48.78;20.08;;;0.80;99.90;;;;;;5092250;28;20382;-57
2023/03/03 02:08:19;;;;;;;45.88;17.80;;;0.80;54.90;;;;;;5086728;28;20454;-57
2023/03/03 02:10:45;;;;;;;40.95;17.92;;;0.70;89.20;;;;;;5092203;28;20382;-57
2023/03/03 02:13:11;;;;;;;43.13;16.73;;;0.70;99.90;;;;;;5091118;28;20396;-57
2023/03/03 02:15:37;;;;;;;39.43;19.10;;;0.70;99.90;;;;;;5091621;28;20743;-57
2023/03/03 02:18:06;;;;;;;41.77;18.80;;;0.60;99.90;;;;;;5091487;28;20394;-57
2023/03/03 02:20:56;;;;;;;42.97;19.45;;;0.60;99.90;;;;;;5091411;28;20378;-57
2023/03/03 02:23:25;;;;;;;42.40;18.73;;;0.70;1.00;;;;;;5088029;28;20403;-57
2023/03/03 02:25:57;;;;;;;48.80;20.15;;;0.70;32.90;;;;;;5092260;28;20398;-57
2023/03/03 02:28:28;;;;;;;38.45;16.52;;;0.80;1.00;;;;;;5091191;28;20398;-57
2023/03/03 02:30:58;;;;;;;43.50;19.25;;;0.80;1.00;;;;;;5087203;28;20862;-57
2023/03/03 02:33:25;;;;;;;44.30;19.15;;;0.90;99.90;;;;;;5091306;28;20382;-57
2023/03/03 02:35:51;;;;;;;46.28;19.60;;;1.00;1.00;;;;;;5091848;28;20375;-57
2023/03/03 02:38:28;;;;;;;44.63;17.02;;;0.90;99.90;;;;;;5091279;28;20431;-57
2023/03/03 02:41:12;;;;;;;43.33;17.37;;;1.10;99.90;;;;;;5091858;28;20381;-57
2023/03/03 02:44:24;;;;;;;41.53;17.27;;;1.00;1.00;;;;;;5087475;28;20755;-57
2023/03/03 02:46:52;;;;;;;41.08;18.00;;;0.90;99.90;;;;;;5082359;28;20478;-57
2023/03/03 02:49:22;;;;;;;38.63;17.00;;;0.90;99.90;;;;;;5090365;28;20370;-57
2023/03/03 02:51:48;;;;;;;43.13;18.50;;;0.90;1.00;;;;;;5090948;28;20385;-57
2023/03/03 02:54:15;;;;;;;46.87;19.07;;;0.80;99.90;;;;;;5090379;28;20854;-57
2023/03/03 02:56:41;;;;;;;41.72;18.63;;;0.70;99.90;;;;;;5090726;28;20386;-57
2023/03/03 02:59:07;;;;;;;47.90;19.63;;;0.80;99.90;;;;;;5090221;28;20370;-57
2023/03/03 03:01:35;;;;;;;43.67;18.80;;;0.80;99.90;;;;;;5090778;28;20386;-57
2023/03/03 03:04:10;;;;;;;48.10;18.10;;;0.80;99.90;;;;;;5089799;28;20496;-57
2023/03/03 03:06:36;;;;;;;42.47;18.67;;;0.90;99.90;;;;;;5085768;28;20397;-57
2023/03/03 03:09:03;;;;;;;39.90;17.73;;;0.90;99.90;;;;;;5090573;28;20382;-57
2023/03/03 03:11:28;;;;;;;41.33;17.00;;;0.90;99.90;;;;;;5090599;28;20382;-57
2023/03/03 03:13:54;;;;;;;41.10;18.27;;;1.20;1.00;;;;;;5090348;28;20704;-57
2023/03/03 03:16:19;;;;;;;46.50;17.92;;;0.90;1.00;;;;;;5089969;28;20425;-57
2023/03/03 03:18:45;;;;;;;45.17;17.40;;;1.00;99.90;;;;;;5091110;28;20862;-57
2023/03/03 03:21:12;;;;;;;41.23;18.20;;;1.00;99.90;;;;;;5090098;28;20495;-57
2023/03/03 03:23:39;;;;;;;37.58;17.83;;;0.80;1.00;;;;;;5090623;28;20889;-57
2023/03/03 03:26:05;;;;;;;46.05;18.08;;;0.80;99.90;;;;;;5090733;28;20393;-57
2023/03/03 03:28:31;;;;;;;41.58;18.65;;;0.90;1.00;;;;;;5090120;28;20860;-57
2023/03/03 03:30:57;;;;;;;42.80;17.58;;;1.00;1.00;;;;;;5090750;28;20506;-57
2023/03/03 03:33:24;;;;;;;46.35;19.25;;;1.00;1.00;;;;;;5089673;28;20386;-57
2023/03/03 03:35:50;;;;;;;50.00;19.48;;;1.00;1.00;;;;;;5090280;28;20402;-57
2023/03/03 03:38:16;;;;;;;44.72;18.73;;;1.00;1.00;;;;;;5090533;28;20366;-57
2023/03/03 03:40:42;;;;;;;37.13;16.98;;;1.10;1.00;;;;;;5090615;28;20382;-57
2023/03/03 03:43:07;;;;;;;46.90;18.95;;;1.10;99.90;;;;;;5089623;28;20467;-57
2023/03/03 03:45:33;;;;;;;50.15;20.23;;;1.70;99.90;;;;;;5085112;28;20874;-57
2023/03/03 03:47:59;;;;;;;43.63;18.10;;;1.10;99.90;;;;;;5090771;28;20461;-57
2023/03/03 03:50:25;;;;;;;44.03;18.58;;;1.10;99.90;;;;;;5089701;28;20388;-57
2023/03/03 03:52:50;;;;;;;44.60;18.70;;;1.10;99.90;;;;;;5090230;28;20410;-57
2023/03/03 03:55:16;;;;;;;46.37;18.33;;;1.10;99.90;;;;;;5089853;28;20413;-57
2023/03/03 03:57:42;;;;;;;41.57;19.30;;;1.20;99.90;;;;;;5089473;28;20748;-57
2023/03/03 04:00:10;;;;;;;46.38;20.42;;;1.10;1.00;;;;;;5088950;28;20381;-57
2023/03/03 04:02:36;;;;;;;40.72;18.98;;;1.20;1.00;;;;;;5084915;28;20394;-57
2023/03/03 04:05:02;;;;;;;43.72;18.05;;;1.20;99.90;;;;;;5089989;28;20853;-57
2023/03/03 04:07:28;;;;;;;39.88;17.40;;;1.30;99.90;;;;;;5089187;28;20765;-57
2023/03/03 04:09:53;;;;;;;38.95;17.48;;;1.30;70.30;;;;;;5084747;28;20394;-57
2023/03/03 04:12:19;;;;;;;44.10;16.77;;;1.20;26.70;;;;;;5088781;28;20747;-57
2023/03/03 04:14:45;;;;;;;51.50;19.13;;;1.30;1.00;;;;;;5090013;28;20389;-57
2023/03/03 04:17:21;;;;;;;39.03;18.47;;;1.30;1.00;;;;;;5088837;28;20839;-57
2023/03/03 04:19:47;;;;;;;49.88;20.17;;;1.40;1.00;;;;;;5090217;28;20382;-57
2023/03/03 04:22:14;;;;;;;42.83;19.48;;;1.30;42.50;;;;;;5089366;28;20375;-57
2023/03/03 04:24:40;;;;;;;57.40;20.40;;;1.40;99.90;;;;;;5089997;28;20450;-57
2023/03/03 04:27:08;;;;;;;41.78;17.63;;;1.60;1.00;;;;;;5088868;28;20474;-57
2023/03/03 04:29:34;;;;;;;41.13;18.80;;;1.70;1.00;;;;;;5083831;28;20909;-57
2023/03/03 04:32:00;;;;;;;43.88;18.05;;;1.70;1.00;;;;;;5089690;28;20396;-57
2023/03/03 04:34:26;;;;;;;42.53;17.42;;;1.80;1.00;;;;;;5089010;28;20386;-57
2023/03/03 04:36:51;;;;;;;47.25;20.00;;;1.80;1.00;;;;;;5089719;28;20429;-55
2023/03/03 04:39:17;;;;;;;44.30;18.77;;;1.90;1.00;;;;;;5088546;28;20374;-55
2023/03/03 04:41:43;;;;;;;44.58;20.13;;;2.00;1.00;;;;;;5089419;28;20724;-55
2023/03/03 04:44:08;;;;;;;43.83;19.63;;;2.00;1.00;;;;;;5088828;28;20413;-55
2023/03/03 04:46:34;;;;;;;48.90;20.48;;;2.10;1.00;;;;;;5090087;28;20386;-55
2023/03/03 04:49:00;;;;;;;45.80;19.50;;;2.10;1.00;;;;;;5089647;28;20439;-55
2023/03/03 04:51:25;;;;;;;42.70;18.47;;;2.20;1.00;;;;;;5088552;28;20577;-55
2023/03/03 04:53:51;;;;;;;42.45;19.45;;;2.20;1.00;;;;;;5063578;28;20558;-55
2023/03/03 04:56:17;;;;;;;48.27;19.57;;;2.20;1.00;;;;;;5058749;28;20748;-56
2023/03/03 04:58:42;;;;;;;52.20;20.37;;;2.30;1.00;;;;;;5064234;28;20479;-55
2023/03/03 05:01:15;;;;;;;48.42;19.63;;;2.40;1.00;;;;;;5072763;28;20457;-55
2023/03/03 05:03:41;;;;;;;43.67;21.33;;;2.50;1.00;;;;;;5071862;28;20416;-55
2023/03/03 05:06:07;;;;;;;46.87;18.83;;;2.50;1.00;;;;;;5068469;28;20404;-55
2023/03/03 05:08:42;;;;;;;54.95;22.25;;;2.50;1.00;;;;;;5069051;28;20406;-55
2023/03/03 05:11:08;;;;;;;47.07;19.93;;;2.50;99.90;;;;;;5071016;28;20744;-55
2023/03/03 05:13:33;;;;;;;42.72;19.73;;;3.60;99.90;;;;;;5073035;28;20399;-55
2023/03/03 05:15:59;;;;;;;48.55;19.98;;;2.50;99.90;;;;;;5073148;28;20482;-55
2023/03/03 05:18:26;;;;;;;51.80;22.87;;;2.60;99.90;;;;;;5063271;28;20431;-56
2023/03/03 05:20:52;;;;;;;50.63;21.20;;;2.70;1.00;;;;;;5068714;28;20384;-55
2023/03/03 05:23:18;;;;;;;47.42;21.58;;;2.70;41.60;;;;;;5072849;28;20420;-56
2023/03/03 05:25:46;;;;;;;42.45;19.80;;;2.70;99.90;;;;;;5072670;28;20457;-55
2023/03/03 05:28:11;;;;;;;43.40;19.90;;;2.70;99.90;;;;;;5072704;28;20494;-56
2023/03/03 05:30:37;;;;;;;47.13;20.63;;;2.70;99.90;;;;;;5073585;28;20466;-55
2023/03/03 05:33:04;;;;;;;44.15;18.42;;;4.00;75.50;;;;;;5062810;28;20719;-55
2023/03/03 05:35:30;;;;;;;47.53;20.67;;;2.90;1.00;;;;;;5053102;28;20455;-55
2023/03/03 05:37:57;;;;;;;54.95;21.13;;;2.90;1.00;;;;;;5053310;28;20851;-55
2023/03/03 05:40:23;;;;;;;47.97;20.53;;;2.90;1.00;;;;;;5052412;28;21273;-55
2023/03/03 05:42:49;;;;;;;48.92;20.63;;;3.00;1.00;;;;;;5052912;28;20480;-56
2023/03/03 05:45:15;;;;;;;44.50;19.10;;;3.10;1.00;;;;;;5051978;28;20856;-57
2023/03/03 05:47:40;;;;;;;56.90;20.90;;;3.20;1.00;;;;;;5053088;28;20390;-56
2023/03/03 05:50:06;;;;;;;48.30;21.40;;;3.20;1.00;;;;;;5051794;28;20397;-56
2023/03/03 05:52:32;;;;;;;45.25;19.33;;;3.20;1.00;;;;;;5052693;28;20424;-55
2023/03/03 05:54:58;;;;;;;49.67;19.37;;;3.30;1.00;;;;;;5052592;28;20447;-55
2023/03/03 05:57:23;;;;;;;44.30;18.83;;;3.30;1.00;;;;;;5051632;28;20996;-55
2023/03/03 05:59:49;;;;;;;46.88;19.55;;;3.30;99.90;;;;;;5052628;28;20980;-55
2023/03/03 06:02:14;;;;;;;49.60;19.80;;;3.20;99.90;;;;;;5051996;28;20460;-55
2023/03/03 06:04:40;;;;;;;45.60;19.33;;;3.10;1.00;;;;;;5052921;28;20433;-55
2023/03/03 06:07:06;;;;;;;68.47;25.20;;;3.20;1.00;;;;;;5052007;28;20397;-55
2023/03/03 06:09:32;;;;;;;50.20;20.13;;;3.10;1.00;;;;;;5051882;28;20814;-55
2023/03/03 06:11:58;;;;;;;47.30;21.33;;;3.30;1.00;;;;;;5052810;28;20431;-55
2023/03/03 06:14:24;;;;;;;49.60;19.98;;;3.20;1.00;;;;;;5050486;28;20385;-55
2023/03/03 06:16:49;;;;;;;46.38;18.98;;;3.30;1.00;;;;;;5052229;28;20413;-55
2023/03/03 06:19:15;;;;;;;45.63;18.90;;;3.30;99.90;;;;;;5051308;28;20815;-55
2023/03/03 06:21:41;;;;;;;46.30;20.00;;;3.20;99.90;;;;;;5051460;28;20397;-55
2023/03/03 06:24:07;;;;;;;48.37;20.87;;;3.20;99.90;;;;;;5051330;28;20397;-55
2023/03/03 06:26:33;;;;;;;46.97;20.67;;;3.20;1.00;;;;;;5051974;28;20531;-56
2023/03/03 06:28:59;;;;;;;84.53;30.40;;;3.90;1.00;;;;;;5052644;28;20531;-55
2023/03/03 06:31:26;;;;;;;62.90;25.37;;;3.30;99.90;;;;;;5051932;28;20495;-55
2023/03/03 06:33:52;;;;;;;47.75;21.17;;;3.20;99.90;;;;;;5052517;28;20468;-55
2023/03/03 06:36:18;;;;;;;43.67;19.27;;;3.20;99.90;;;;;;5051583;28;20539;-56
2023/03/03 06:38:44;;;;;;;46.22;19.75;;;3.30;99.90;;;;;;5052176;28;20393;-55
2023/03/03 06:41:10;;;;;;;37.83;18.30;;;3.40;99.90;;;;;;5051415;28;20845;-57
2023/03/03 06:43:36;;;;;;;40.08;18.83;;;3.30;99.90;;;;;;5051983;28;20733;-56
2023/03/03 06:46:03;;;;;;;41.83;18.20;;;3.40;99.90;;;;;;5051767;28;20432;-56
2023/03/03 06:48:30;;;;;;;43.75;18.40;;;3.40;99.90;;;;;;5051558;28;20838;-56
2023/03/03 06:50:57;;;;;;;41.33;18.85;;;3.40;99.90;;;;;;5051740;28;20458;-56
2023/03/03 06:53:25;;;;;;;46.42;19.70;;;3.60;99.90;;;;;;5051271;28;20472;-56
2023/03/03 06:55:50;;;;;;;49.03;18.85;;;3.60;99.90;;;;;;5051146;28;20389;-56
2023/03/03 06:58:18;;;;;;;42.72;19.90;;;3.60;99.90;;;;;;5050646;28;20439;-56
2023/03/03 07:00:57;;;;;;;45.75;18.92;;;3.70;99.90;;;;;;5051558;28;20438;-56
2023/03/03 07:03:33;;;;;;;44.85;19.10;;;3.90;99.90;;;;;;5051368;28;20819;-56
2023/03/03 07:06:00;;;;;;;46.92;20.35;;;4.00;84.30;;;;;;5065427;28;20488;-56
2023/03/03 07:08:30;;;;;;;45.42;20.33;;;3.90;59.10;;;;;;5070871;28;20445;-56
2023/03/03 07:11:05;;;;;;;41.20;19.05;;;3.90;42.50;;;;;;5071015;28;20959;-56
2023/03/03 07:13:32;;;;;;;42.13;19.40;;;4.00;6.90;;;;;;5071699;28;20391;-56
2023/03/03 07:16:02;;;;;;;37.17;16.52;;;4.20;1.00;;;;;;5069658;28;20423;-57
2023/03/03 07:18:49;;;;;;;33.35;15.65;;;4.00;1.00;;;;;;5070555;28;20402;-56
2023/03/03 07:21:27;;;;;;;39.28;15.70;;;4.10;1.00;;;;;;5070102;28;20391;-57
2023/03/03 07:23:53;;;;;;;33.20;15.35;;;4.00;1.00;;;;;;5070928;28;20433;-56
2023/03/03 07:26:23;;;;;;;36.03;14.73;;;4.10;1.00;;;;;;5070036;28;21240;-57
2023/03/03 07:28:56;;;;;;;28.50;13.97;;;4.10;1.00;;;;;;5070557;28;20449;-56
2023/03/03 07:31:40;;;;;;;31.75;14.98;;;4.10;1.00;;;;;;5070358;28;20383;-57
2023/03/03 07:34:23;;;;;;;32.20;14.73;;;4.30;1.00;;;;;;5070323;28;20395;-57
2023/03/03 07:36:54;;;;;;;32.15;14.25;;;4.40;1.00;;;;;;5069297;28;20453;-56
2023/03/03 07:39:38;;;;;;;31.52;13.82;;;4.40;1.00;;;;;;5069583;28;20384;-56
2023/03/03 07:42:22;;;;;;;28.55;14.05;;;4.20;1.00;;;;;;5070203;28;20392;-56
2023/03/03 07:44:51;;;;;;;29.17;13.50;;;4.40;1.00;;;;;;5070873;28;20411;-57
2023/03/03 07:47:33;;;;;;;31.60;14.00;;;4.50;1.00;;;;;;5069872;28;20879;-57
2023/03/03 07:50:14;;;;;;;30.85;13.35;;;4.70;1.00;;;;;;5070696;28;20428;-56
2023/03/03 07:52:42;;;;;;;29.20;13.27;;;4.90;1.00;;;;;;5070047;28;20372;-57
2023/03/03 07:55:38;;;;;;;30.90;13.63;;;4.60;1.00;;;;;;5069601;28;20390;-57
2023/03/03 07:58:16;;;;;;;28.30;13.05;;;5.00;1.00;;;;;;5070198;28;20391;-57
2023/03/03 08:00:44;;;;;;;33.53;14.52;;;5.20;1.00;;;;;;5070043;28;20411;-57
2023/03/03 08:03:16;;;;;;;31.30;13.32;;;5.30;1.00;;;;;;5069995;28;20423;-57
2023/03/03 08:05:43;;;;;;;33.00;13.60;;;5.40;1.00;;;;;;5070369;28;20821;-57
2023/03/03 08:08:09;;;;;;;29.58;13.68;;;5.30;1.00;;;;;;5069656;28;20376;-57
2023/03/03 08:10:47;;;;;;;29.50;13.47;;;5.50;1.00;;;;;;5069866;28;20733;-57
2023/03/03 08:13:17;;;;;;;35.35;14.70;;;5.80;1.00;;;;;;5069391;28;20395;-57
2023/03/03 08:15:45;;;;;;;28.23;13.10;;;6.30;1.00;;;;;;5069946;28;20399;-57
2023/03/03 08:18:23;;;;;;;29.83;12.63;;;6.50;99.90;;;;;;5069197;28;20372;-57
2023/03/03 08:21:00;;;;;;;32.60;13.88;;;6.80;99.90;;;;;;5069840;28;20380;-57
2023/03/03 08:23:26;;;;;;;26.20;13.73;;;7.20;99.90;;;;;;5069131;28;20889;-57
2023/03/03 08:25:52;;;;;;;26.53;12.10;;;7.40;99.90;;;;;;5069163;28;20786;-57
2023/03/03 08:28:19;;;;;;;28.47;14.20;;;;;;;;;;5068738;28;20404;-57
2023/03/03 08:30:45;;;;;;;30.20;13.32;;;9.40;99.90;;;;;;5070212;28;20387;-57
2023/03/03 08:33:12;;;;;;;29.80;12.43;;;10.80;99.90;;;;;;5069237;28;20376;-58
2023/03/03 08:35:37;;;;;;;30.48;14.25;;;12.00;99.90;;;;;;5069273;28;20858;-58
2023/03/03 08:38:03;;;;;;;31.20;15.07;;;11.60;99.90;;;;;;5069443;28;20395;-58
2023/03/03 08:40:29;;;;;;;30.57;15.07;;;10.90;99.90;;;;;;5069673;28;20453;-58
2023/03/03 08:42:54;;;;;;;29.02;15.10;;;10.40;99.90;;;;;;5070092;28;20419;-58
2023/03/03 08:45:20;;;;;;;25.70;14.50;;;11.90;99.90;;;;;;5068687;28;20748;-58
2023/03/03 08:47:46;;;;;;;30.33;15.60;;;12.10;99.90;;;;;;5068985;28;20853;-58
2023/03/03 08:50:12;;;;;;;28.63;16.93;;;13.30;99.90;;;;;;5068883;28;20459;-58
2023/03/03 08:52:38;;;;;;;29.73;17.02;;;13.40;99.90;;;;;;5069684;28;20724;-58
2023/03/03 08:55:04;;;;;;;29.63;17.27;;;13.70;99.90;;;;;;5069409;28;20491;-58
2023/03/03 08:57:30;;;;;;;30.75;17.55;;;13.90;99.90;;;;;;5069532;28;20360;-59
2023/03/03 08:59:56;;;;;;;33.00;19.23;;;13.20;99.90;;;;;;5070259;28;20367;-58
2023/03/03 09:02:22;;;;;;;29.25;17.63;;;12.60;99.90;;;;;;5068893;28;20863;-58
2023/03/03 09:04:47;;;;;;;30.58;18.38;;;12.70;99.90;;;;;;5069482;28;20403;-58
2023/03/03 09:07:13;;;;;;;29.40;17.47;;;12.60;99.90;;;;;;5068464;28;20490;-58
2023/03/03 09:09:39;;;;;;;27.23;17.83;;;12.70;99.90;;;;;;5069160;28;21134;-59
2023/03/03 09:12:21;;;;;;;33.83;18.40;;;13.00;99.90;;;;;;5069019;28;20380;-58
2023/03/03 09:14:47;;;;;;;30.92;18.50;;;12.80;99.90;;;;;;5069647;28;20392;-58
2023/03/03 09:17:34;;;;;;;34.92;18.90;;;12.70;99.90;;;;;;5068330;28;20376;-58
2023/03/03 09:20:20;;;;;;;31.05;17.80;;;12.90;99.90;;;;;;5069437;28;20445;-58
2023/03/03 09:22:46;;;;;;;30.63;18.23;;;12.40;99.90;;;;;;5069285;28;20383;-58
2023/03/03 09:25:30;;;;;;;31.97;18.77;;;11.90;99.90;;;;;;5068852;28;20470;-58
2023/03/03 09:27:57;;;;;;;31.20;17.98;;;11.70;99.90;;;;;;5068884;28;20471;-58
2023/03/03 09:30:25;;;;;;;34.10;18.50;;;11.20;99.90;;;;;;5069072;28;20438;-58
2023/03/03 09:32:51;;;;;;;29.73;16.88;;;11.30;99.90;;;;;;5069051;28;20388;-58
2023/03/03 09:35:36;;;;;;;29.60;17.90;;;10.90;99.90;;;;;;5068424;28;20380;-58
2023/03/03 09:38:24;;;;;;;30.63;16.05;;;10.60;99.90;;;;;;5069081;28;20374;-58
2023/03/03 09:41:13;;;;;;;35.13;16.25;;;10.20;99.90;;;;;;5069108;28;20382;-58
2023/03/03 09:43:58;;;;;;;36.60;15.90;;;9.50;99.90;;;;;;5069103;28;20841;-58
2023/03/03 09:46:45;;;;;;;33.53;16.02;;;9.30;99.90;;;;;;5068181;28;20384;-58
2023/03/03 09:49:33;;;;;;;30.83;15.73;;;9.40;99.90;;;;;;5067797;28;20384;-59
2023/03/03 09:52:09;;;;;;;32.77;16.30;;;9.90;99.90;;;;;;5069685;28;20952;-59
2023/03/03 09:54:37;;;;;;;28.25;15.88;;;10.50;99.90;;;;;;5069302;28;20415;-59
2023/03/03 09:57:16;;;;;;;29.48;16.20;;;11.00;99.90;;;;;;5071244;28;20392;-59
2023/03/03 10:00:25;;;;;;;37.80;20.95;;;11.30;99.90;;;;;;5072544;28;20469;-58
2023/03/03 10:03:12;;;;;;;33.42;18.80;;;11.60;99.90;;;;;;5072351;28;20426;-58
2023/03/03 10:06:00;;;;;;;30.60;18.35;;;11.70;99.90;;;;;;5072724;28;20402;-59
2023/03/03 10:08:35;;;;;;;32.42;17.20;;;12.00;99.90;;;;;;5072069;28;21035;-58
2023/03/03 10:11:00;;;;;;;32.30;18.00;;;12.20;99.90;;;;;;5072067;28;20462;-58
2023/03/03 10:13:44;;;;;;;33.93;17.60;;;12.20;99.90;;;;;;5071616;28;20399;-58
2023/03/03 10:16:21;;;;;;;34.65;17.17;;;11.80;99.90;;;;;;5071757;28;20382;-59
2023/03/03 10:18:59;;;;;;;31.77;17.20;;;11.50;99.90;;;;;;5072117;28;20732;-59
2023/03/03 10:21:25;;;;;;;29.63;16.73;;;10.90;99.90;;;;;;5071434;28;20379;-58
2023/03/03 10:24:13;;;;;;;31.60;16.77;;;11.00;99.90;;;;;;5071757;28;20403;-58
2023/03/03 10:27:05;;;;;;;31.02;16.67;;;11.40;99.90;;;;;;5072153;28;20541;-58
2023/03/03 10:29:58;;;;;;;31.50;17.23;;;11.40;99.90;;;;;;5071884;28;20403;-57
2023/03/03 10:32:47;;;;;;;33.33;15.70;;;11.30;99.90;;;;;;5069763;28;20412;-58
2023/03/03 10:35:38;;;;;;;34.55;20.00;;;11.20;99.90;;;;;;5071316;28;20392;-58
2023/03/03 10:38:04;;;;;;;33.80;17.00;;;11.00;99.90;;;;;;5071636;28;20379;-57
2023/03/03 10:41:06;;;;;;;35.17;16.92;;;11.00;99.90;;;;;;5071298;28;20388;-57
2023/03/03 10:43:56;;;;;;;27.92;16.13;;;11.30;99.90;;;;;;5071394;28;20403;-57
2023/03/03 10:46:36;;;;;;;29.77;15.75;;;10.90;99.90;;;;;;5070721;28;20475;-57
2023/03/03 10:49:05;;;;;;;31.23;17.40;;;10.90;99.90;;;;;;5071528;28;20425;-57
2023/03/03 10:51:56;;;;;;;29.88;17.08;;;11.20;99.90;;;;;;5070950;28;20398;-58
2023/03/03 10:54:55;;;;;;;35.47;17.88;;;11.50;99.90;;;;;;5070393;28;20387;-60
2023/03/03 10:57:31;;;;;;;34.00;17.40;;;11.40;99.90;;;;;;5070723;28;20379;-59
2023/03/03 11:00:05;;;;;;;28.80;14.77;;;11.30;99.90;;;;;;5071664;28;20371;-59
2023/03/03 11:02:59;;;;;;;36.20;17.55;;;11.20;99.90;;;;;;5071014;28;20407;-59
2023/03/03 11:05:27;;;;;;;30.38;16.60;;;11.60;99.90;;;;;;5071038;28;20394;-59
2023/03/03 11:08:13;;;;;;;30.65;16.00;;;12.00;99.90;;;;;;5070321;28;20749;-59
2023/03/03 11:10:47;;;;;;;28.27;16.02;;;12.40;99.90;;;;;;5071766;28;20363;-59
2023/03/03 11:13:27;;;;;;;28.60;15.85;;;12.80;99.90;;;;;;5070004;28;20390;-59
2023/03/03 11:16:30;;;;;;;28.98;15.90;;;12.40;99.90;;;;;;5071254;28;20457;-58
2023/03/03 11:19:14;;;;;;;30.83;15.90;;;11.50;99.90;;;;;;5071456;28;20371;-57
2023/03/03 11:22:05;;;;;;;30.45;15.02;;;11.80;99.90;;;;;;5071338;28;20368;-57
2023/03/03 11:25:02;;;;;;;28.95;15.38;;;11.90;99.90;;;;;;5069997;28;20432;-58
2023/03/03 11:28:05;;;;;;;24.38;14.80;;;11.30;99.90;;;;;;5060312;28;20527;-57
2023/03/03 11:30:50;;;;;;;28.90;14.13;;;11.20;99.90;;;;;;5070339;28;20517;-57
2023/03/03 11:33:55;;;;;;;28.93;15.53;;;11.10;99.90;;;;;;5069901;28;20419;-57
2023/03/03 11:36:35;;;;;;;32.33;15.55;;;11.20;99.90;;;;;;5068581;28;20391;-57
2023/03/03 11:39:04;;;;;;;28.93;16.17;;;11.10;99.90;;;;;;5070536;28;20378;-57
2023/03/03 11:42:13;;;;;;;34.42;15.88;;;11.10;99.90;;;;;;5069300;28;20393;-57
2023/03/03 11:44:49;;;;;;;25.50;14.57;;;11.30;99.90;;;;;;5070366;28;20953;-57
2023/03/03 11:47:29;;;;;;;32.70;16.15;;;11.10;99.90;;;;;;5069732;28;20749;-57
2023/03/03 11:50:14;;;;;;;33.35;14.52;;;11.80;99.90;;;;;;5070058;28;20380;-58
2023/03/03 11:52:53;;;;;;;31.50;15.50;;;11.20;99.90;;;;;;5070914;28;20387;-58
2023/03/03 11:55:38;;;;;;;32.55;16.05;;;11.50;99.90;;;;;;5070038;28;20468;-58
2023/03/03 11:58:19;;;;;;;29.35;14.80;;;11.70;99.90;;;;;;5070374;28;20384;-58
2023/03/03 12:00:48;;;;;;;29.77;15.23;;;11.70;99.90;;;;;;5070178;28;20399;-58
2023/03/03 12:03:35;;;;;;;29.40;15.18;;;11.60;99.90;;;;;;5069107;28;20419;-58
2023/03/03 12:06:15;;;;;;;28.88;15.15;;;12.00;99.90;;;;;;5070226;28;20392;-58
2023/03/03 12:09:02;;;;;;;32.60;15.75;;;12.20;99.90;;;;;;5069841;28;20379;-57
2023/03/03 12:11:47;;;;;;;31.03;14.73;;;12.00;99.90;;;;;;5068798;28;21022;-57
2023/03/03 12:14:12;;;;;;;28.33;14.60;;;11.80;99.90;;;;;;5069367;28;20830;-57
2023/03/03 12:16:47;;;;;;;28.63;16.23;;;11.30;99.90;;;;;;5070118;28;20382;-57
2023/03/03 12:19:25;;;;;;;28.35;14.77;;;11.30;99.90;;;;;;5068360;28;20382;-57
2023/03/03 12:21:53;;;;;;;32.22;15.10;;;11.60;99.90;;;;;;5068552;28;20793;-57
2023/03/03 12:24:52;;;;;;;30.23;15.73;;;11.90;99.90;;;;;;5069183;28;20500;-57
2023/03/03 12:27:44;;;;;;;32.17;15.30;;;11.30;99.90;;;;;;5068882;28;20905;-57
2023/03/03 12:30:47;;;;;;;34.20;15.38;;;11.60;99.90;;;;;;5069888;28;20375;-59
2023/03/03 12:33:22;;;;;;;30.25;14.88;;;11.80;99.90;;;;;;5069462;28;20403;-58
2023/03/03 12:36:05;;;;;;;28.15;14.00;;;11.90;99.90;;;;;;5069804;28;20513;-58
2023/03/03 12:38:43;;;;;;;30.05;15.23;;;11.90;99.90;;;;;;5069202;28;20464;-58
2023/03/03 12:41:14;;;;;;;31.50;15.50;;;11.80;99.90;;;;;;5069535;28;20391;-58
2023/03/03 12:43:54;;;;;;;29.70;14.57;;;12.00;99.90;;;;;;5070010;28;20415;-58
2023/03/03 12:46:38;;;;;;;30.35;15.27;;;12.20;99.90;;;;;;5069018;28;20406;-58
2023/03/03 12:49:04;;;;;;;29.70;14.77;;;12.10;99.90;;;;;;5069508;28;20383;-58
2023/03/03 12:51:55;;;;;;;31.65;15.88;;;11.90;99.90;;;;;;5069131;28;20371;-58
2023/03/03 12:54:41;;;;;;;28.83;15.63;;;12.20;99.90;;;;;;5068678;28;20392;-58
2023/03/03 12:57:13;;;;;;;30.80;15.32;;;12.20;99.90;;;;;;5069685;28;20399;-58
2023/03/03 13:00:18;;;;;;;29.60;15.40;;;12.10;99.90;;;;;;5069529;28;20884;-57
2023/03/03 13:02:48;;;;;;;29.43;15.07;;;11.60;99.90;;;;;;5069231;28;20919;-57
2023/03/03 13:05:26;;;;;;;28.08;14.88;;;11.80;99.90;;;;;;5068374;28;20478;-58